Time,TemperatureF,DewpointF,PressureIn,WindDirection,WindDirectionDegrees,WindSpeedMPH,WindSpeedGustMPH,Humidity,HourlyPrecipIn,Conditions,Clouds,dailyrainin,SoftwareType,DateUTC
2013-03-23 00:58:00,42.2,36.1,30.01,NE,42,0.0,0.0,78,0.00,,,0.00,Meteorologica,2013-03-23 04:58:00,
2013-03-23 01:00:00,49.3,49.3,29.84,NNW,330,1.0,3.0,100,0.02,,,0.11,Meteorologica,2013-03-23 05:00:00,
2013-03-23 01:01:00,49.2,49.2,29.84,NNW,330,0.4,3.0,100,0.02,,,0.11,Meteorologica,2013-03-23 05:01:00,
2013-03-23 01:02:00,49.2,49.2,29.84,NNW,330,0.0,3.0,100,0.03,,,0.12,Meteorologica,2013-03-23 05:02:00,
2013-03-23 01:03:00,41.8,36.5,30.01,NE,42,0.0,0.0,81,0.00,,,0.00,Meteorologica,2013-03-23 05:03:00,
2013-03-23 01:04:00,49.2,49.2,29.84,NNW,330,0.0,3.0,100,0.03,,,0.12,Meteorologica,2013-03-23 05:04:00,
2013-03-23 01:05:00,49.1,49.1,29.85,NNW,330,0.0,1.0,100,0.03,,,0.12,Meteorologica,2013-03-23 05:05:00,
2013-03-23 01:06:00,49.1,49.1,29.85,NNW,330,0.0,1.0,100,0.04,,,0.13,Meteorologica,2013-03-23 05:06:00,
2013-03-23 01:07:00,49.1,49.1,29.85,NNW,330,0.0,1.0,100,0.04,,,0.13,Meteorologica,2013-03-23 05:07:00,
2013-03-23 01:08:00,41.6,37.1,30.01,NE,42,0.0,0.0,84,0.00,,,0.00,Meteorologica,2013-03-23 05:08:00,
2013-03-23 01:13:00,41.3,37.7,30.01,NE,42,0.0,0.0,87,0.00,,,0.00,Meteorologica,2013-03-23 05:13:00,
2013-03-23 01:18:00,40.9,38.8,30.01,NE,42,0.0,0.0,92,0.00,,,0.00,Meteorologica,2013-03-23 05:18:00,
2013-03-23 01:23:00,40.6,38.7,30.01,NE,50,0.0,1.9,93,0.00,,,0.00,Meteorologica,2013-03-23 05:23:00,
2013-03-23 01:28:00,40.4,38.2,30.02,NE,50,0.0,0.0,91,0.00,,,0.00,Meteorologica,2013-03-23 05:28:00,
2013-03-23 01:34:00,40.2,38.3,30.01,NE,50,0.0,0.0,93,0.00,,,0.00,Meteorologica,2013-03-23 05:34:00,
2013-03-23 01:39:00,40.1,37.8,30.01,NE,50,0.0,0.0,91,0.00,,,0.00,Meteorologica,2013-03-23 05:39:00,
2013-03-23 01:44:00,40.0,37.9,30.01,NE,50,0.0,0.0,92,0.00,,,0.00,Meteorologica,2013-03-23 05:44:00,
2013-03-23 01:49:00,40.0,38.6,30.00,NE,50,0.0,0.0,94,0.00,,,0.00,Meteorologica,2013-03-23 05:49:00,
2013-03-23 01:54:00,40.1,38.9,30.01,NE,50,0.0,0.0,95,0.00,,,0.00,Meteorologica,2013-03-23 05:54:00,
2013-03-23 01:59:00,40.0,38.6,30.01,NE,50,0.0,0.0,94,0.00,,,0.00,Meteorologica,2013-03-23 05:59:00,
2013-03-23 02:05:00,40.0,37.9,30.01,NE,50,0.0,0.0,92,0.00,,,0.00,Meteorologica,2013-03-23 06:05:00,
2013-03-23 02:10:00,40.2,38.3,30.00,NE,50,0.0,0.0,93,0.00,,,0.00,Meteorologica,2013-03-23 06:10:00,
2013-03-23 02:15:00,40.1,38.2,30.00,NE,50,0.0,0.0,92,0.00,,,0.00,Meteorologica,2013-03-23 06:15:00,
2013-03-23 02:20:00,40.3,38.4,30.00,NE,50,0.0,0.0,93,0.00,,,0.00,Meteorologica,2013-03-23 06:20:00,
2013-03-23 02:25:00,40.2,38.3,30.00,NE,50,0.0,0.0,92,0.00,,,0.00,Meteorologica,2013-03-23 06:25:00,
2013-03-23 02:30:00,40.3,38.4,30.01,NE,50,0.0,0.0,93,0.00,,,0.00,Meteorologica,2013-03-23 06:30:00,
2013-03-23 02:35:00,40.3,38.3,30.01,NE,55,0.5,0.0,92,0.00,,,0.00,Meteorologica,2013-03-23 06:35:00,
2013-03-23 02:40:00,40.3,37.3,29.99,NE,47,1.0,3.1,89,0.00,,,0.00,Meteorologica,2013-03-23 06:40:00,
2013-03-23 02:45:00,40.5,37.4,29.99,NE,47,0.0,2.2,88,0.00,,,0.00,Meteorologica,2013-03-23 06:45:00,
2013-03-23 02:50:00,40.5,37.4,29.99,NE,47,0.0,0.0,88,0.00,,,0.00,Meteorologica,2013-03-23 06:50:00,
2013-03-23 02:55:00,40.5,36.3,29.99,NE,47,0.0,0.0,85,0.00,,,0.00,Meteorologica,2013-03-23 06:55:00,
2013-03-23 03:00:00,40.6,36.6,29.99,NE,47,0.0,0.0,85,0.00,,,0.00,Meteorologica,2013-03-23 07:00:00,
2013-03-23 03:05:00,40.6,36.6,29.99,NE,47,0.0,0.0,85,0.00,,,0.00,Meteorologica,2013-03-23 07:05:00,
2013-03-23 03:10:00,40.7,35.6,30.00,NE,47,0.0,0.0,82,0.00,,,0.00,Meteorologica,2013-03-23 07:10:00,
2013-03-23 03:16:00,40.8,35.6,30.00,NE,47,0.0,0.0,81,0.00,,,0.00,Meteorologica,2013-03-23 07:16:00,
2013-03-23 03:21:00,40.8,35.4,29.99,NE,47,0.0,0.0,80,0.00,,,0.00,Meteorologica,2013-03-23 07:21:00,
2013-03-23 03:27:00,40.9,35.2,29.98,NE,47,0.0,0.0,79,0.00,,,0.00,Meteorologica,2013-03-23 07:27:00,
2013-03-23 03:32:00,41.0,36.0,29.98,NE,47,0.0,0.0,82,0.00,,,0.00,Meteorologica,2013-03-23 07:32:00,
2013-03-23 03:37:00,41.0,36.6,29.99,NE,47,0.0,0.0,84,0.00,,,0.00,Meteorologica,2013-03-23 07:37:00,
2013-03-23 03:42:00,41.2,37.3,29.98,ENE,60,1.9,0.0,86,0.00,,,0.00,Meteorologica,2013-03-23 07:42:00,
2013-03-23 03:47:00,41.0,36.5,29.98,NE,42,0.8,3.0,83,0.00,,,0.00,Meteorologica,2013-03-23 07:47:00,
2013-03-23 03:52:00,41.2,36.3,29.98,NE,42,0.0,3.5,82,0.00,,,0.00,Meteorologica,2013-03-23 07:52:00,
2013-03-23 03:57:00,41.2,35.7,29.97,NE,42,0.0,0.0,80,0.00,,,0.00,Meteorologica,2013-03-23 07:57:00,
2013-03-23 04:02:00,41.1,34.8,29.98,NE,42,0.0,0.0,78,0.00,,,0.00,Meteorologica,2013-03-23 08:02:00,
2013-03-23 04:07:00,41.3,35.0,29.98,NE,42,0.0,0.0,78,0.00,,,0.00,Meteorologica,2013-03-23 08:07:00,
2013-03-23 04:13:00,41.2,35.3,29.98,NE,42,0.0,0.0,79,0.00,,,0.00,Meteorologica,2013-03-23 08:13:00,
2013-03-23 04:18:00,41.3,35.5,29.98,NE,42,0.0,0.0,79,0.00,,,0.00,Meteorologica,2013-03-23 08:18:00,
2013-03-23 04:23:00,41.4,36.4,29.98,NE,42,0.0,0.0,82,0.01,,,0.01,Meteorologica,2013-03-23 08:23:00,
2013-03-23 04:28:00,41.4,37.5,29.97,NE,42,0.0,0.0,86,0.01,,,0.01,Meteorologica,2013-03-23 08:28:00,
2013-03-23 04:33:00,41.3,39.4,29.97,NE,42,0.0,0.0,93,0.01,,,0.01,Meteorologica,2013-03-23 08:33:00,
2013-03-23 04:38:00,40.9,40.8,29.98,NE,42,0.0,0.0,99,0.01,,,0.01,Meteorologica,2013-03-23 08:38:00,
2013-03-23 04:43:00,40.8,40.8,29.99,NE,42,0.0,0.0,100,0.01,,,0.01,Meteorologica,2013-03-23 08:43:00,
2013-03-23 04:48:00,40.2,40.2,29.96,NE,43,0.0,2.6,100,0.01,,,0.01,Meteorologica,2013-03-23 08:48:00,
2013-03-23 04:53:00,39.8,39.8,29.95,NNE,15,0.0,1.1,100,0.01,,,0.01,Meteorologica,2013-03-23 08:53:00,
2013-03-23 04:58:00,39.5,39.5,29.96,North,354,0.0,3.1,100,0.01,,,0.01,Meteorologica,2013-03-23 08:58:00,
2013-03-23 05:03:00,39.5,39.5,29.97,North,354,0.0,0.0,100,0.01,,,0.01,Meteorologica,2013-03-23 09:03:00,
2013-03-23 05:08:00,39.5,39.5,29.97,North,354,0.0,0.0,100,0.01,,,0.01,Meteorologica,2013-03-23 09:08:00,
2013-03-23 05:13:00,39.2,39.2,29.98,North,354,0.0,0.0,100,0.01,,,0.01,Meteorologica,2013-03-23 09:13:00,
2013-03-23 05:19:00,39.2,39.2,29.98,North,354,0.0,0.0,100,0.01,,,0.01,Meteorologica,2013-03-23 09:19:00,
2013-03-23 05:24:00,39.2,39.2,29.97,NNW,330,0.0,2.7,100,0.00,,,0.01,Meteorologica,2013-03-23 09:24:00,
2013-03-23 05:29:00,39.2,39.2,29.97,NNW,330,0.0,0.0,100,0.00,,,0.01,Meteorologica,2013-03-23 09:29:00,
2013-03-23 05:35:00,39.1,39.1,29.97,NNW,330,0.0,0.0,100,0.00,,,0.01,Meteorologica,2013-03-23 09:35:00,
2013-03-23 05:40:00,39.1,39.1,29.97,NNW,333,1.4,0.0,100,0.00,,,0.01,Meteorologica,2013-03-23 09:40:00,
2013-03-23 05:45:00,39.0,39.0,29.98,NNW,331,0.0,4.2,100,0.00,,,0.01,Meteorologica,2013-03-23 09:45:00,
2013-03-23 05:50:00,38.9,38.9,29.97,NNW,331,0.0,0.0,100,0.00,,,0.01,Meteorologica,2013-03-23 09:50:00,
2013-03-23 05:55:00,38.8,38.8,29.97,NNW,331,0.0,0.0,100,0.00,,,0.01,Meteorologica,2013-03-23 09:55:00,
2013-03-23 06:00:00,38.8,38.8,29.96,NNW,331,0.0,0.0,100,0.00,,,0.01,Meteorologica,2013-03-23 10:00:00,
2013-03-23 06:05:00,38.7,38.7,29.97,NNW,331,0.0,0.0,100,0.00,,,0.01,Meteorologica,2013-03-23 10:05:00,
2013-03-23 06:12:00,38.5,38.5,29.97,NNW,331,0.0,0.0,100,0.00,,,0.01,Meteorologica,2013-03-23 10:12:00,
2013-03-23 06:17:00,38.5,38.5,29.97,NNW,331,0.0,0.0,100,0.00,,,0.01,Meteorologica,2013-03-23 10:17:00,
2013-03-23 06:22:00,38.5,38.5,29.97,NNW,331,0.0,0.0,100,0.00,,,0.01,Meteorologica,2013-03-23 10:22:00,
2013-03-23 06:27:00,38.6,38.6,29.98,NNW,331,0.0,0.0,100,0.00,,,0.01,Meteorologica,2013-03-23 10:27:00,
2013-03-23 06:33:00,38.5,38.5,29.98,NNW,331,0.0,0.0,100,0.00,,,0.01,Meteorologica,2013-03-23 10:33:00,
2013-03-23 06:38:00,38.4,38.4,29.98,NNW,331,0.0,0.0,100,0.00,,,0.01,Meteorologica,2013-03-23 10:38:00,
2013-03-23 06:43:00,38.4,38.4,29.98,NNW,331,0.0,0.0,100,0.00,,,0.01,Meteorologica,2013-03-23 10:43:00,
2013-03-23 06:48:00,38.3,38.3,29.99,NNW,331,0.0,0.0,100,0.00,,,0.01,Meteorologica,2013-03-23 10:48:00,
2013-03-23 06:53:00,38.4,38.4,29.99,NNW,331,0.0,0.0,100,0.00,,,0.01,Meteorologica,2013-03-23 10:53:00,
2013-03-23 06:58:00,38.4,38.4,30.00,NNW,331,0.0,0.0,100,0.01,,,0.02,Meteorologica,2013-03-23 10:58:00,
2013-03-23 07:03:00,38.4,38.4,30.01,NNW,331,0.0,0.0,100,0.01,,,0.02,Meteorologica,2013-03-23 11:03:00,
2013-03-23 07:09:00,38.4,38.4,30.01,NNW,331,0.0,0.0,100,0.03,,,0.04,Meteorologica,2013-03-23 11:09:00,
2013-03-23 07:14:00,38.4,38.4,29.99,NNW,331,0.0,0.0,100,0.05,,,0.06,Meteorologica,2013-03-23 11:14:00,
2013-03-23 07:19:00,38.5,38.5,30.00,NNW,331,0.0,0.0,100,0.06,,,0.07,Meteorologica,2013-03-23 11:19:00,
2013-03-23 07:24:00,38.4,38.4,29.98,NNW,331,0.0,0.0,100,0.07,,,0.08,Meteorologica,2013-03-23 11:24:00,
2013-03-23 07:29:00,38.4,38.4,29.97,ENE,57,0.0,2.9,100,0.07,,,0.08,Meteorologica,2013-03-23 11:29:00,
2013-03-23 07:34:00,38.4,38.4,29.97,ENE,57,0.0,0.0,100,0.08,,,0.09,Meteorologica,2013-03-23 11:34:00,
2013-03-23 07:39:00,38.4,38.4,29.97,ENE,57,0.0,0.0,100,0.08,,,0.09,Meteorologica,2013-03-23 11:39:00,
2013-03-23 07:44:00,38.3,38.3,29.98,NNE,32,5.3,6.4,100,0.08,,,0.09,Meteorologica,2013-03-23 11:44:00,
2013-03-23 07:49:00,38.1,38.1,29.98,NE,35,3.3,6.8,100,0.08,,,0.09,Meteorologica,2013-03-23 11:49:00,
2013-03-23 07:54:00,38.1,38.1,29.98,NNE,21,0.3,4.9,100,0.08,,,0.09,Meteorologica,2013-03-23 11:54:00,
2013-03-23 07:59:00,38.1,38.1,29.99,NNE,21,0.0,1.8,100,0.07,,,0.09,Meteorologica,2013-03-23 11:59:00,
2013-03-23 08:04:00,38.1,38.1,29.99,NNE,21,0.0,0.0,100,0.06,,,0.09,Meteorologica,2013-03-23 12:04:00,
2013-03-23 08:09:00,38.1,38.1,29.99,NNE,21,0.0,0.0,100,0.04,,,0.09,Meteorologica,2013-03-23 12:09:00,
2013-03-23 08:14:00,38.2,38.2,29.99,NNE,21,0.0,0.0,100,0.02,,,0.09,Meteorologica,2013-03-23 12:14:00,
2013-03-23 08:19:00,38.2,38.2,30.01,NNE,21,0.0,0.0,100,0.02,,,0.09,Meteorologica,2013-03-23 12:19:00,
2013-03-23 08:25:00,38.3,38.3,30.00,NNE,21,0.0,0.0,100,0.01,,,0.09,Meteorologica,2013-03-23 12:25:00,
2013-03-23 08:30:00,38.4,38.4,30.01,NNE,21,0.0,0.0,100,0.01,,,0.09,Meteorologica,2013-03-23 12:30:00,
2013-03-23 08:35:00,38.4,38.4,30.01,NNE,21,0.0,0.0,100,0.00,,,0.09,Meteorologica,2013-03-23 12:35:00,
2013-03-23 08:40:00,38.5,38.5,30.01,NNE,21,0.0,0.0,100,0.00,,,0.09,Meteorologica,2013-03-23 12:40:00,
2013-03-23 08:45:00,38.6,38.6,30.00,NNE,21,0.0,0.0,100,0.00,,,0.09,Meteorologica,2013-03-23 12:45:00,
2013-03-23 08:50:00,38.6,38.6,30.00,NNE,21,0.0,0.0,100,0.00,,,0.09,Meteorologica,2013-03-23 12:50:00,
2013-03-23 08:55:00,38.6,38.6,30.01,NNE,14,2.5,3.0,100,0.00,,,0.09,Meteorologica,2013-03-23 12:55:00,
2013-03-23 09:01:00,38.7,38.7,30.01,NNE,26,0.0,3.1,100,0.00,,,0.09,Meteorologica,2013-03-23 13:01:00,
2013-03-23 09:06:00,38.7,38.7,30.01,NNE,26,0.0,0.0,100,0.00,,,0.09,Meteorologica,2013-03-23 13:06:00,
2013-03-23 09:11:00,38.7,38.7,30.00,NNE,26,0.0,0.0,100,0.00,,,0.09,Meteorologica,2013-03-23 13:11:00,
2013-03-23 09:16:00,38.7,38.7,30.01,NNE,19,0.0,3.0,100,0.00,,,0.09,Meteorologica,2013-03-23 13:16:00,
2013-03-23 09:21:00,39.0,39.0,30.01,NNE,19,0.0,3.1,100,0.00,,,0.09,Meteorologica,2013-03-23 13:21:00,
2013-03-23 09:26:00,38.9,38.9,30.01,NNE,19,0.0,0.0,100,0.00,,,0.09,Meteorologica,2013-03-23 13:26:00,
2013-03-23 09:31:00,38.8,38.8,30.00,NNE,19,0.0,0.0,100,0.00,,,0.09,Meteorologica,2013-03-23 13:31:00,
2013-03-23 09:36:00,38.9,38.9,30.00,NNE,19,0.0,0.0,100,0.00,,,0.09,Meteorologica,2013-03-23 13:36:00,
2013-03-23 09:41:00,38.9,38.9,30.00,NNE,19,0.0,0.0,100,0.00,,,0.09,Meteorologica,2013-03-23 13:41:00,
2013-03-23 09:46:00,38.9,38.9,29.99,NNE,19,0.0,0.0,100,0.00,,,0.09,Meteorologica,2013-03-23 13:46:00,
2013-03-23 09:51:00,39.2,39.2,30.00,NNE,19,0.0,0.0,100,0.00,,,0.09,Meteorologica,2013-03-23 13:51:00,
2013-03-23 09:57:00,39.1,39.1,30.00,NE,43,0.0,0.0,100,0.00,,,0.09,Meteorologica,2013-03-23 13:57:00,
2013-03-23 10:02:00,39.3,39.3,30.00,NE,35,0.5,2.7,100,0.00,,,0.09,Meteorologica,2013-03-23 14:02:00,
2013-03-23 10:07:00,39.4,39.4,30.00,NNE,15,0.0,5.6,100,0.00,,,0.09,Meteorologica,2013-03-23 14:07:00,
2013-03-23 10:12:00,39.4,39.4,30.00,NNE,25,0.0,3.7,100,0.00,,,0.09,Meteorologica,2013-03-23 14:12:00,
2013-03-23 10:17:00,39.6,39.6,30.00,NNE,12,0.9,3.1,100,0.00,,,0.09,Meteorologica,2013-03-23 14:17:00,
2013-03-23 10:22:00,39.8,39.8,30.00,North,11,1.6,4.8,100,0.00,,,0.09,Meteorologica,2013-03-23 14:22:00,
2013-03-23 10:27:00,39.8,39.8,30.00,NNE,32,2.6,5.1,100,0.00,,,0.09,Meteorologica,2013-03-23 14:27:00,
2013-03-23 10:32:00,40.0,40.0,30.00,NNE,31,3.0,4.4,100,0.00,,,0.09,Meteorologica,2013-03-23 14:32:00,
2013-03-23 10:37:00,40.3,40.3,30.00,NNE,18,0.3,4.5,100,0.00,,,0.09,Meteorologica,2013-03-23 14:37:00,
2013-03-23 10:42:00,40.6,40.6,30.00,NNE,24,4.3,4.3,100,0.00,,,0.09,Meteorologica,2013-03-23 14:42:00,
2013-03-23 10:47:00,40.7,40.7,30.00,NE,46,2.7,6.1,100,0.00,,,0.09,Meteorologica,2013-03-23 14:47:00,
2013-03-23 10:52:00,40.8,40.8,30.00,North,11,3.3,7.3,100,0.00,,,0.09,Meteorologica,2013-03-23 14:52:00,
2013-03-23 10:57:00,41.0,41.0,30.00,NNE,20,4.3,6.1,100,0.00,,,0.09,Meteorologica,2013-03-23 14:57:00,
2013-03-23 11:02:00,41.3,41.3,30.00,NE,35,3.1,6.9,100,0.00,,,0.09,Meteorologica,2013-03-23 15:02:00,
2013-03-23 11:07:00,41.6,41.6,30.00,North,8,3.2,7.1,100,0.00,,,0.09,Meteorologica,2013-03-23 15:07:00,
2013-03-23 11:12:00,41.7,41.7,30.00,NNE,18,3.2,5.2,100,0.00,,,0.09,Meteorologica,2013-03-23 15:12:00,
2013-03-23 11:17:00,41.9,41.9,29.99,ENE,72,2.1,5.8,100,0.00,,,0.09,Meteorologica,2013-03-23 15:17:00,
2013-03-23 11:22:00,41.9,41.9,30.00,NE,43,5.2,6.6,100,0.00,,,0.09,Meteorologica,2013-03-23 15:22:00,
2013-03-23 11:27:00,42.0,42.0,30.00,NNE,26,3.5,7.3,100,0.00,,,0.09,Meteorologica,2013-03-23 15:27:00,
2013-03-23 11:32:00,42.3,42.3,30.00,NW,315,3.5,6.3,100,0.00,,,0.09,Meteorologica,2013-03-23 15:32:00,
2013-03-23 11:37:00,42.3,42.3,30.00,NNE,21,1.7,6.0,100,0.00,,,0.09,Meteorologica,2013-03-23 15:37:00,
2013-03-23 11:42:00,42.4,42.4,30.00,ENE,63,2.0,7.7,100,0.00,,,0.09,Meteorologica,2013-03-23 15:42:00,
2013-03-23 11:47:00,42.5,42.5,30.00,NNE,19,1.8,7.0,100,0.00,,,0.09,Meteorologica,2013-03-23 15:47:00,
2013-03-23 11:52:00,42.5,42.5,30.00,NNE,29,1.7,4.3,100,0.00,,,0.09,Meteorologica,2013-03-23 15:52:00,
2013-03-23 11:57:00,42.6,42.6,30.00,NNE,29,2.6,4.5,100,0.00,,,0.09,Meteorologica,2013-03-23 15:57:00,
2013-03-23 12:02:00,42.6,42.6,30.00,NNE,33,3.8,5.0,100,0.00,,,0.09,Meteorologica,2013-03-23 16:02:00,
2013-03-23 12:07:00,42.7,42.7,30.00,NNE,25,2.3,5.3,100,0.00,,,0.09,Meteorologica,2013-03-23 16:07:00,
2013-03-23 12:12:00,42.9,42.9,30.00,NNE,19,2.6,5.1,100,0.00,,,0.09,Meteorologica,2013-03-23 16:12:00,
2013-03-23 12:17:00,43.1,43.1,30.00,NE,48,2.7,4.1,100,0.00,,,0.09,Meteorologica,2013-03-23 16:17:00,
2013-03-23 12:23:00,43.3,43.3,29.99,North,5,4.8,5.6,100,0.00,,,0.09,Meteorologica,2013-03-23 16:23:00,
2013-03-23 12:28:00,43.4,43.4,29.99,NNE,20,2.9,6.0,100,0.00,,,0.09,Meteorologica,2013-03-23 16:28:00,
2013-03-23 12:33:00,43.7,43.7,29.99,North,4,5.5,6.6,100,0.00,,,0.09,Meteorologica,2013-03-23 16:33:00,
2013-03-23 12:38:00,43.8,43.8,29.98,North,7,2.6,6.9,100,0.00,,,0.09,Meteorologica,2013-03-23 16:38:00,
2013-03-23 12:43:00,44.1,44.1,29.98,North,9,4.7,7.8,100,0.00,,,0.09,Meteorologica,2013-03-23 16:43:00,
2013-03-23 12:48:00,44.1,44.0,29.99,North,359,3.8,6.8,99,0.00,,,0.09,Meteorologica,2013-03-23 16:48:00,
2013-03-23 12:53:00,44.2,43.9,29.98,NE,41,2.3,6.9,99,0.00,,,0.09,Meteorologica,2013-03-23 16:53:00,
2013-03-23 12:58:00,44.3,44.1,29.98,NNE,26,3.6,6.2,99,0.00,,,0.09,Meteorologica,2013-03-23 16:58:00,
2013-03-23 13:03:00,44.5,44.0,29.98,NNE,24,3.1,7.8,98,0.00,,,0.09,Meteorologica,2013-03-23 17:03:00,
2013-03-23 13:08:00,44.7,44.2,29.98,NNE,14,2.9,5.5,98,0.00,,,0.09,Meteorologica,2013-03-23 17:08:00,
2013-03-23 13:13:00,44.7,44.2,29.98,North,358,3.4,5.6,98,0.00,,,0.09,Meteorologica,2013-03-23 17:13:00,
2013-03-23 13:18:00,45.0,44.8,29.97,North,5,5.7,6.5,99,0.00,,,0.09,Meteorologica,2013-03-23 17:18:00,
2013-03-23 13:23:00,45.4,45.1,29.97,North,350,4.1,7.4,99,0.00,,,0.09,Meteorologica,2013-03-23 17:23:00,
2013-03-23 13:28:00,45.5,45.4,29.97,North,351,3.4,6.0,99,0.00,,,0.09,Meteorologica,2013-03-23 17:28:00,
2013-03-23 13:33:00,45.4,45.0,29.96,NNE,22,3.0,5.5,98,0.00,,,0.09,Meteorologica,2013-03-23 17:33:00,
2013-03-23 13:38:00,45.7,45.2,29.97,North,1,4.5,6.1,98,0.00,,,0.09,Meteorologica,2013-03-23 17:38:00,
2013-03-23 13:43:00,45.8,45.2,29.96,NNW,341,3.5,5.6,98,0.00,,,0.09,Meteorologica,2013-03-23 17:43:00,
2013-03-23 13:48:00,46.0,46.0,29.96,NNW,348,3.6,7.7,100,0.00,,,0.09,Meteorologica,2013-03-23 17:48:00,
2013-03-23 13:53:00,46.1,46.0,29.96,NNE,31,2.3,4.8,99,0.00,,,0.09,Meteorologica,2013-03-23 17:53:00,
2013-03-23 13:58:00,46.1,45.8,29.96,NE,47,1.7,4.8,98,0.00,,,0.09,Meteorologica,2013-03-23 17:58:00,
2013-03-23 14:03:00,46.2,45.9,29.96,NE,38,3.4,4.9,98,0.00,,,0.09,Meteorologica,2013-03-23 18:03:00,
2013-03-23 14:08:00,46.4,46.4,29.96,NE,49,1.4,7.1,100,0.00,,,0.09,Meteorologica,2013-03-23 18:08:00,
2013-03-23 14:13:00,46.7,46.7,29.96,NNE,32,1.6,4.0,100,0.00,,,0.09,Meteorologica,2013-03-23 18:13:00,
2013-03-23 14:18:00,46.8,46.8,29.96,North,10,4.7,5.8,100,0.00,,,0.09,Meteorologica,2013-03-23 18:18:00,
2013-03-23 14:23:00,46.9,46.9,29.94,NNE,17,4.9,6.9,99,0.00,,,0.09,Meteorologica,2013-03-23 18:23:00,
2013-03-23 14:28:00,47.2,47.2,29.95,NNE,18,1.7,6.6,99,0.00,,,0.09,Meteorologica,2013-03-23 18:28:00,
2013-03-23 14:33:00,47.4,47.3,29.95,NNE,14,4.5,6.3,99,0.00,,,0.09,Meteorologica,2013-03-23 18:33:00,
2013-03-23 14:38:00,47.6,47.4,29.94,NE,35,4.3,6.6,99,0.00,,,0.09,Meteorologica,2013-03-23 18:38:00,
2013-03-23 14:43:00,47.8,47.5,29.94,NNE,21,4.9,6.4,98,0.00,,,0.09,Meteorologica,2013-03-23 18:43:00,
2013-03-23 14:48:00,47.9,47.3,29.94,North,1,4.5,6.3,97,0.00,,,0.09,Meteorologica,2013-03-23 18:48:00,
2013-03-23 14:53:00,48.0,47.4,29.94,North,355,2.3,5.3,97,0.00,,,0.09,Meteorologica,2013-03-23 18:53:00,
2013-03-23 14:58:00,48.1,47.2,29.94,NNE,26,4.0,6.2,96,0.00,,,0.09,Meteorologica,2013-03-23 18:58:00,
2013-03-23 15:03:00,48.4,47.6,29.94,NE,39,3.5,5.3,97,0.00,,,0.09,Meteorologica,2013-03-23 19:03:00,
2013-03-23 15:08:00,48.3,47.1,29.93,NE,44,3.6,5.2,95,0.00,,,0.09,Meteorologica,2013-03-23 19:08:00,
2013-03-23 15:13:00,48.5,47.4,29.93,NNE,33,2.0,5.0,96,0.00,,,0.09,Meteorologica,2013-03-23 19:13:00,
2013-03-23 15:19:00,48.6,47.4,29.92,ENE,59,3.4,5.6,95,0.00,,,0.09,Meteorologica,2013-03-23 19:19:00,
2013-03-23 15:24:00,48.9,47.7,29.92,NE,41,2.7,5.1,95,0.00,,,0.09,Meteorologica,2013-03-23 19:24:00,
2013-03-23 15:29:00,49.0,47.2,29.92,NE,38,3.3,5.1,93,0.00,,,0.09,Meteorologica,2013-03-23 19:29:00,
2013-03-23 15:34:00,49.3,46.1,29.92,NE,35,5.4,7.2,88,0.00,,,0.09,Meteorologica,2013-03-23 19:34:00,
2013-03-23 15:39:00,49.6,46.4,29.91,NNE,16,3.0,5.8,88,0.00,,,0.09,Meteorologica,2013-03-23 19:39:00,
2013-03-23 15:44:00,49.7,45.4,29.92,NW,324,2.5,7.4,85,0.00,,,0.09,Meteorologica,2013-03-23 19:44:00,
2013-03-23 15:49:00,49.9,45.4,29.92,NNE,22,4.7,5.6,84,0.00,,,0.09,Meteorologica,2013-03-23 19:49:00,
2013-03-23 15:54:00,50.2,46.2,29.92,NNE,29,0.0,5.5,86,0.00,,,0.09,Meteorologica,2013-03-23 19:54:00,
2013-03-23 15:59:00,50.4,46.1,29.92,ENE,73,2.9,7.5,85,0.00,,,0.09,Meteorologica,2013-03-23 19:59:00,
2013-03-23 16:04:00,50.6,45.9,29.92,ENE,69,3.7,5.0,83,0.00,,,0.09,Meteorologica,2013-03-23 20:04:00,
2013-03-23 16:09:00,50.6,45.8,29.92,NNE,20,3.1,7.0,83,0.00,,,0.09,Meteorologica,2013-03-23 20:09:00,
2013-03-23 16:14:00,50.6,45.9,29.91,North,9,3.7,5.4,83,0.00,,,0.09,Meteorologica,2013-03-23 20:14:00,
2013-03-23 16:25:00,50.9,46.1,29.90,ENE,62,1.9,4.1,83,0.00,,,0.09,Meteorologica,2013-03-23 20:25:00,
2013-03-23 16:30:00,51.1,46.1,29.90,NE,40,1.9,6.1,82,0.00,,,0.09,Meteorologica,2013-03-23 20:30:00,
2013-03-23 16:35:00,51.4,45.9,29.89,NE,34,2.1,4.4,81,0.00,,,0.09,Meteorologica,2013-03-23 20:35:00,
2013-03-23 16:40:00,51.8,46.0,29.88,NNE,31,2.0,4.5,80,0.00,,,0.09,Meteorologica,2013-03-23 20:40:00,
2013-03-23 16:45:00,52.1,45.4,29.88,NNE,33,4.2,6.0,77,0.00,,,0.09,Meteorologica,2013-03-23 20:45:00,
2013-03-23 16:50:00,52.4,46.3,29.88,NNE,22,0.8,5.8,79,0.00,,,0.09,Meteorologica,2013-03-23 20:50:00,
2013-03-23 16:55:00,52.3,45.6,29.88,East,79,0.6,5.1,77,0.00,,,0.09,Meteorologica,2013-03-23 20:55:00,
2013-03-23 17:00:00,52.4,45.6,29.88,North,359,1.2,4.3,77,0.00,,,0.09,Meteorologica,2013-03-23 21:00:00,
2013-03-23 17:05:00,52.4,45.4,29.90,East,93,0.3,3.2,76,0.00,,,0.09,Meteorologica,2013-03-23 21:05:00,
2013-03-23 17:10:00,52.4,45.7,29.90,East,90,0.8,2.2,77,0.00,,,0.09,Meteorologica,2013-03-23 21:10:00,
2013-03-23 17:15:00,52.5,45.8,29.90,NE,53,0.6,2.4,77,0.00,,,0.09,Meteorologica,2013-03-23 21:15:00,
2013-03-23 17:20:00,52.7,45.6,29.91,NNE,18,0.0,2.6,76,0.00,,,0.09,Meteorologica,2013-03-23 21:20:00,
2013-03-23 17:25:00,52.7,45.5,29.91,NNE,18,0.0,2.0,76,0.00,,,0.09,Meteorologica,2013-03-23 21:25:00,
2013-03-23 17:30:00,52.6,45.5,29.90,NNE,16,0.0,4.8,76,0.00,,,0.09,Meteorologica,2013-03-23 21:30:00,
2013-03-23 17:35:00,52.4,45.5,29.90,NNE,16,0.0,0.0,77,0.00,,,0.09,Meteorologica,2013-03-23 21:35:00,
2013-03-23 17:40:00,52.5,45.6,29.90,NNE,22,0.0,2.3,77,0.00,,,0.09,Meteorologica,2013-03-23 21:40:00,
2013-03-23 17:45:00,52.6,45.6,29.89,NNE,23,0.6,3.5,76,0.00,,,0.09,Meteorologica,2013-03-23 21:45:00,
2013-03-23 17:50:00,52.8,45.6,29.89,NNE,21,0.0,3.3,76,0.00,,,0.09,Meteorologica,2013-03-23 21:50:00,
2013-03-23 17:55:00,52.9,45.3,29.89,North,1,3.9,3.9,75,0.00,,,0.09,Meteorologica,2013-03-23 21:55:00,
2013-03-23 18:00:00,53.0,45.4,29.89,ENE,71,2.1,4.7,75,0.00,,,0.09,Meteorologica,2013-03-23 22:00:00,
2013-03-23 18:05:00,53.3,45.5,29.90,North,11,1.9,3.1,74,0.00,,,0.09,Meteorologica,2013-03-23 22:05:00,
2013-03-23 18:10:00,53.3,45.5,29.90,NNE,31,3.5,3.7,74,0.00,,,0.09,Meteorologica,2013-03-23 22:10:00,
2013-03-23 18:15:00,53.3,45.2,29.90,NE,47,1.3,4.7,73,0.00,,,0.09,Meteorologica,2013-03-23 22:15:00,
2013-03-23 18:20:00,53.4,45.2,29.90,NNE,15,0.0,3.0,73,0.00,,,0.09,Meteorologica,2013-03-23 22:20:00,
2013-03-23 18:25:00,53.3,45.2,29.91,ENE,74,1.4,2.0,73,0.00,,,0.09,Meteorologica,2013-03-23 22:25:00,
2013-03-23 18:31:00,53.3,45.6,29.91,North,354,0.7,2.7,74,0.00,,,0.09,Meteorologica,2013-03-23 22:31:00,
2013-03-23 18:36:00,53.2,45.3,29.91,North,354,0.0,1.1,74,0.00,,,0.09,Meteorologica,2013-03-23 22:36:00,
2013-03-23 18:41:00,53.2,45.5,29.90,NNE,14,2.1,2.1,74,0.00,,,0.09,Meteorologica,2013-03-23 22:41:00,
2013-03-23 18:46:00,53.2,45.4,29.90,North,8,0.0,3.3,74,0.00,,,0.09,Meteorologica,2013-03-23 22:46:00,
2013-03-23 18:52:00,53.1,45.7,29.89,NNE,25,1.2,2.0,75,0.00,,,0.09,Meteorologica,2013-03-23 22:52:00,
2013-03-23 18:57:00,52.8,46.1,29.85,NE,41,2.1,3.6,77,0.00,,,0.09,Meteorologica,2013-03-23 22:57:00,
2013-03-23 19:02:00,52.5,46.1,29.85,NNE,14,3.5,3.5,78,0.00,,,0.09,Meteorologica,2013-03-23 23:02:00,
2013-03-23 19:07:00,52.2,46.1,29.84,North,4,1.4,5.8,79,0.00,,,0.09,Meteorologica,2013-03-23 23:07:00,
2013-03-23 19:12:00,52.1,45.9,29.83,NNE,23,2.3,4.7,79,0.00,,,0.09,Meteorologica,2013-03-23 23:12:00,
2013-03-23 19:17:00,52.1,46.1,29.84,NNE,18,2.2,4.8,79,0.00,,,0.09,Meteorologica,2013-03-23 23:17:00,
2013-03-23 19:22:00,52.1,45.9,29.84,NNE,25,3.4,4.7,79,0.00,,,0.09,Meteorologica,2013-03-23 23:22:00,
2013-03-23 19:27:00,52.3,46.0,29.84,NNE,12,2.6,6.6,79,0.00,,,0.09,Meteorologica,2013-03-23 23:27:00,
2013-03-23 19:32:00,52.1,45.8,29.84,NNE,33,2.2,5.3,78,0.00,,,0.09,Meteorologica,2013-03-23 23:32:00,
2013-03-23 19:37:00,52.2,46.0,29.84,NE,35,1.7,4.9,79,0.00,,,0.09,Meteorologica,2013-03-23 23:37:00,
2013-03-23 19:42:00,52.1,45.9,29.84,North,4,1.4,3.2,79,0.00,,,0.09,Meteorologica,2013-03-23 23:42:00,
2013-03-23 19:47:00,52.1,45.9,29.84,North,10,2.8,3.9,79,0.00,,,0.09,Meteorologica,2013-03-23 23:47:00,
2013-03-23 19:52:00,52.1,46.0,29.85,NNE,14,2.1,3.7,79,0.00,,,0.09,Meteorologica,2013-03-23 23:52:00,
2013-03-23 19:58:00,51.9,45.7,29.85,NNE,25,1.3,4.0,79,0.00,,,0.09,Meteorologica,2013-03-23 23:58:00,
2013-03-23 20:02:00,51.8,45.7,29.85,NNE,19,3.1,3.1,79,0.00,,,0.09,Meteorologica,2013-03-24 00:02:00,
2013-03-23 20:08:00,51.8,45.9,29.85,NNE,14,0.0,4.1,80,0.00,,,0.09,Meteorologica,2013-03-24 00:08:00,
2013-03-23 20:13:00,51.5,45.9,29.85,NNE,14,0.0,0.0,81,0.00,,,0.09,Meteorologica,2013-03-24 00:13:00,
2013-03-23 20:18:00,51.3,46.3,29.84,NE,34,1.1,3.1,82,0.00,,,0.09,Meteorologica,2013-03-24 00:18:00,
2013-03-23 20:23:00,51.1,46.2,29.84,North,9,2.1,5.6,83,0.00,,,0.09,Meteorologica,2013-03-24 00:23:00,
2013-03-23 20:28:00,51.0,46.2,29.84,NNE,23,3.2,6.0,83,0.00,,,0.09,Meteorologica,2013-03-24 00:28:00,
2013-03-23 20:33:00,51.0,46.3,29.84,NE,43,1.4,5.0,83,0.00,,,0.09,Meteorologica,2013-03-24 00:33:00,
2013-03-23 20:38:00,51.0,46.2,29.85,NNE,12,2.0,4.6,83,0.00,,,0.09,Meteorologica,2013-03-24 00:38:00,
2013-03-23 20:43:00,50.8,46.0,29.85,NNE,20,2.7,5.1,83,0.00,,,0.09,Meteorologica,2013-03-24 00:43:00,
2013-03-23 20:48:00,50.7,45.9,29.84,NNE,21,2.6,3.3,83,0.00,,,0.09,Meteorologica,2013-03-24 00:48:00,
2013-03-23 20:53:00,50.7,46.1,29.83,NE,47,2.5,4.3,84,0.00,,,0.09,Meteorologica,2013-03-24 00:53:00,
2013-03-23 20:58:00,50.6,45.9,29.84,NNE,20,2.3,3.6,84,0.00,,,0.09,Meteorologica,2013-03-24 00:58:00,
2013-03-23 21:03:00,50.6,46.1,29.83,NNE,19,1.6,2.8,84,0.00,,,0.09,Meteorologica,2013-03-24 01:03:00,
2013-03-23 21:08:00,50.4,46.1,29.83,NNE,24,2.0,2.7,85,0.00,,,0.09,Meteorologica,2013-03-24 01:08:00,
2013-03-23 21:13:00,50.3,46.0,29.83,NNE,18,0.0,2.4,85,0.00,,,0.09,Meteorologica,2013-03-24 01:13:00,
2013-03-23 21:19:00,50.1,45.8,29.83,NNE,18,0.0,0.0,85,0.00,,,0.09,Meteorologica,2013-03-24 01:19:00,
2013-03-23 21:24:00,50.0,46.0,29.83,NNE,18,0.0,0.0,86,0.00,,,0.09,Meteorologica,2013-03-24 01:24:00,
2013-03-23 21:29:00,49.9,46.1,29.81,NNE,31,1.5,0.0,86,0.00,,,0.09,Meteorologica,2013-03-24 01:29:00,
2013-03-23 21:34:00,49.5,46.8,29.80,NNE,16,3.1,4.5,90,0.00,,,0.09,Meteorologica,2013-03-24 01:34:00,
2013-03-23 21:39:00,49.1,46.9,29.81,NNE,27,1.9,4.2,92,0.00,,,0.09,Meteorologica,2013-03-24 01:39:00,
2013-03-23 21:44:00,49.1,46.9,29.80,NNE,26,3.3,4.7,92,0.00,,,0.09,Meteorologica,2013-03-24 01:44:00,
2013-03-23 21:49:00,49.3,47.0,29.79,NE,45,0.0,4.6,91,0.00,,,0.09,Meteorologica,2013-03-24 01:49:00,
2013-03-23 21:54:00,49.4,47.0,29.78,NE,39,1.2,0.0,91,0.00,,,0.09,Meteorologica,2013-03-24 01:54:00,
2013-03-23 21:59:00,49.3,47.0,29.77,NNE,18,3.1,4.0,92,0.00,,,0.09,Meteorologica,2013-03-24 01:59:00,
2013-03-23 22:04:00,49.4,47.0,29.79,NNE,20,3.6,4.8,91,0.00,,,0.09,Meteorologica,2013-03-24 02:04:00,
2013-03-23 22:09:00,49.7,47.1,29.80,NNE,19,0.0,4.5,90,0.00,,,0.09,Meteorologica,2013-03-24 02:09:00,
2013-03-23 22:14:00,49.7,47.0,29.79,NNE,19,0.0,0.0,90,0.00,,,0.09,Meteorologica,2013-03-24 02:14:00,
2013-03-23 22:20:00,49.9,47.2,29.80,NNE,19,0.0,0.0,90,0.00,,,0.09,Meteorologica,2013-03-24 02:20:00,
2013-03-23 22:25:00,49.9,47.2,29.80,NNE,19,0.0,0.0,90,0.00,,,0.09,Meteorologica,2013-03-24 02:25:00,
2013-03-23 22:30:00,49.9,47.1,29.81,NNE,19,0.0,0.0,90,0.00,,,0.09,Meteorologica,2013-03-24 02:30:00,
2013-03-23 22:35:00,50.0,47.3,29.82,NNE,19,0.0,0.0,90,0.00,,,0.09,Meteorologica,2013-03-24 02:35:00,
2013-03-23 22:40:00,49.9,47.2,29.82,NNE,19,0.0,0.0,90,0.00,,,0.09,Meteorologica,2013-03-24 02:40:00,
2013-03-23 22:45:00,49.9,47.3,29.82,NNE,19,0.0,0.0,91,0.00,,,0.09,Meteorologica,2013-03-24 02:45:00,
2013-03-23 22:50:00,49.8,47.8,29.80,NNE,19,0.0,0.0,93,0.00,,,0.09,Meteorologica,2013-03-24 02:50:00,
2013-03-23 22:55:00,49.8,48.7,29.80,NNE,18,1.3,0.0,96,0.00,,,0.09,Meteorologica,2013-03-24 02:55:00,
2013-03-23 23:00:00,49.7,49.3,29.79,NNE,26,1.8,2.1,98,0.00,,,0.09,Meteorologica,2013-03-24 03:00:00,
2013-03-23 23:05:00,49.5,49.0,29.79,NNE,25,1.8,3.3,98,0.00,,,0.09,Meteorologica,2013-03-24 03:05:00,
2013-03-23 23:10:00,49.3,48.7,29.78,North,4,1.7,3.7,97,0.00,,,0.09,Meteorologica,2013-03-24 03:10:00,
2013-03-23 23:16:00,49.3,48.7,29.79,NNE,19,0.0,5.0,97,0.00,,,0.09,Meteorologica,2013-03-24 03:16:00,
2013-03-23 23:21:00,49.4,48.7,29.78,NNE,23,3.5,0.0,97,0.00,,,0.09,Meteorologica,2013-03-24 03:21:00,
2013-03-23 23:26:00,49.4,48.5,29.78,NNE,33,1.6,5.0,96,0.00,,,0.09,Meteorologica,2013-03-24 03:26:00,
2013-03-23 23:31:00,49.4,48.8,29.78,NE,35,3.3,3.4,98,0.00,,,0.09,Meteorologica,2013-03-24 03:31:00,
2013-03-23 23:37:00,49.5,49.5,29.78,NE,42,4.5,5.3,99,0.00,,,0.09,Meteorologica,2013-03-24 03:37:00,
2013-03-23 23:42:00,49.3,49.3,29.80,NNE,24,2.5,5.3,100,0.00,,,0.09,Meteorologica,2013-03-24 03:42:00,
2013-03-23 23:47:00,49.3,49.3,29.83,WNW,295,0.9,4.7,100,0.00,,,0.09,Meteorologica,2013-03-24 03:47:00,
2013-03-23 23:52:00,49.3,49.3,29.83,NNE,21,2.5,4.5,100,0.00,,,0.09,Meteorologica,2013-03-24 03:52:00,
2013-03-23 23:57:00,49.3,49.3,29.84,North,349,1.0,4.8,100,0.01,,,0.10,Meteorologica,2013-03-24 03:57:00,